sensor_id;sensor_type;location;lat;lon;timestamp;pressure;altitude;pressure_sealevel;temperature;humidity
34658;BME280;20865;43.312;27.152;2023-09-07T00:00:35;100912.61;;;27.98;39.68
34658;BME280;20865;43.312;27.152;2023-09-07T00:03:03;100909.00;;;27.98;39.74
34658;BME280;20865;43.312;27.152;2023-09-07T00:05:31;100907.47;;;27.99;39.77
34658;BME280;20865;43.312;27.152;2023-09-07T00:07:59;100910.72;;;27.99;39.65
34658;BME280;20865;43.312;27.152;2023-09-07T00:10:27;100905.16;;;27.95;39.58
34658;BME280;20865;43.312;27.152;2023-09-07T00:12:54;100912.19;;;27.93;39.62
34658;BME280;20865;43.312;27.152;2023-09-07T00:15:22;100907.69;;;28.02;39.36
34658;BME280;20865;43.312;27.152;2023-09-07T00:17:51;100907.12;;;28.08;39.19
34658;BME280;20865;43.312;27.152;2023-09-07T00:20:19;100904.50;;;28.07;39.21
34658;BME280;20865;43.312;27.152;2023-09-07T00:22:48;100899.17;;;28.05;39.28
34658;BME280;20865;43.312;27.152;2023-09-07T00:25:16;100901.11;;;27.99;39.39
34658;BME280;20865;43.312;27.152;2023-09-07T00:27:43;100904.38;;;27.98;39.54
34658;BME280;20865;43.312;27.152;2023-09-07T00:30:11;100904.66;;;27.95;39.63
34658;BME280;20865;43.312;27.152;2023-09-07T00:32:39;100900.81;;;27.92;39.69
34658;BME280;20865;43.312;27.152;2023-09-07T00:35:08;100902.86;;;27.90;39.65
34658;BME280;20865;43.312;27.152;2023-09-07T00:37:36;100897.42;;;27.85;39.65
34658;BME280;20865;43.312;27.152;2023-09-07T00:40:06;100902.11;;;27.78;39.72
34658;BME280;20865;43.312;27.152;2023-09-07T00:42:36;100898.02;;;27.63;40.16
34658;BME280;20865;43.312;27.152;2023-09-07T00:45:04;100896.12;;;27.54;40.48
34658;BME280;20865;43.312;27.152;2023-09-07T00:47:34;100895.53;;;27.50;40.51
34658;BME280;20865;43.312;27.152;2023-09-07T00:50:04;100896.88;;;27.66;40.26
34658;BME280;20865;43.312;27.152;2023-09-07T00:52:33;100892.84;;;27.70;40.04
34658;BME280;20865;43.312;27.152;2023-09-07T00:55:05;100892.95;;;27.49;40.42
34658;BME280;20865;43.312;27.152;2023-09-07T00:57:33;100888.88;;;27.43;40.24
34658;BME280;20865;43.312;27.152;2023-09-07T01:00:02;100875.37;;;27.36;40.39
34658;BME280;20865;43.312;27.152;2023-09-07T01:02:30;100890.84;;;27.37;40.32
34658;BME280;20865;43.312;27.152;2023-09-07T01:04:58;100892.48;;;27.34;40.33
34658;BME280;20865;43.312;27.152;2023-09-07T01:07:33;100894.64;;;27.30;40.31
34658;BME280;20865;43.312;27.152;2023-09-07T01:10:02;100890.93;;;27.26;40.42
34658;BME280;20865;43.312;27.152;2023-09-07T01:12:30;100892.18;;;27.27;40.43
34658;BME280;20865;43.312;27.152;2023-09-07T01:14:58;100862.41;;;27.23;40.38
34658;BME280;20865;43.312;27.152;2023-09-07T01:17:25;100882.38;;;27.35;40.14
34658;BME280;20865;43.312;27.152;2023-09-07T01:19:54;100893.94;;;27.38;39.96
34658;BME280;20865;43.312;27.152;2023-09-07T01:22:25;100894.29;;;27.39;39.93
34658;BME280;20865;43.312;27.152;2023-09-07T01:24:53;100893.35;;;27.35;39.79
34658;BME280;20865;43.312;27.152;2023-09-07T01:27:21;100892.89;;;27.29;39.76
34658;BME280;20865;43.312;27.152;2023-09-07T01:29:49;100899.03;;;27.27;39.60
34658;BME280;20865;43.312;27.152;2023-09-07T01:32:17;100888.37;;;27.19;39.69
34658;BME280;20865;43.312;27.152;2023-09-07T01:34:44;100906.44;;;27.21;39.66
34658;BME280;20865;43.312;27.152;2023-09-07T01:37:12;100901.46;;;27.21;40.07
34658;BME280;20865;43.312;27.152;2023-09-07T01:39:40;100898.64;;;27.17;40.25
34658;BME280;20865;43.312;27.152;2023-09-07T01:42:07;100894.80;;;27.14;40.38
34658;BME280;20865;43.312;27.152;2023-09-07T01:44:35;100898.77;;;27.15;40.22
34658;BME280;20865;43.312;27.152;2023-09-07T01:47:02;100895.16;;;27.15;39.56
34658;BME280;20865;43.312;27.152;2023-09-07T01:49:30;100899.52;;;27.12;39.45
34658;BME280;20865;43.312;27.152;2023-09-07T01:51:58;100899.19;;;27.05;39.39
34658;BME280;20865;43.312;27.152;2023-09-07T01:54:25;100907.28;;;26.91;39.66
34658;BME280;20865;43.312;27.152;2023-09-07T01:56:54;100897.19;;;26.76;40.03
34658;BME280;20865;43.312;27.152;2023-09-07T01:59:22;100900.98;;;26.70;40.38
34658;BME280;20865;43.312;27.152;2023-09-07T02:01:49;100904.73;;;26.69;40.95
34658;BME280;20865;43.312;27.152;2023-09-07T02:04:17;100884.27;;;26.57;41.21
34658;BME280;20865;43.312;27.152;2023-09-07T02:06:44;100894.45;;;26.61;41.09
34658;BME280;20865;43.312;27.152;2023-09-07T02:09:12;100894.45;;;26.61;41.09
34658;BME280;20865;43.312;27.152;2023-09-07T02:11:39;100900.70;;;26.57;41.03
34658;BME280;20865;43.312;27.152;2023-09-07T02:14:07;100903.23;;;26.49;41.44
34658;BME280;20865;43.312;27.152;2023-09-07T02:16:35;100904.47;;;26.45;41.06
34658;BME280;20865;43.312;27.152;2023-09-07T02:19:04;100908.25;;;26.38;40.80
34658;BME280;20865;43.312;27.152;2023-09-07T02:21:32;100909.54;;;26.29;40.82
34658;BME280;20865;43.312;27.152;2023-09-07T02:24:00;100909.18;;;26.28;40.79
34658;BME280;20865;43.312;27.152;2023-09-07T02:26:27;100913.80;;;26.27;41.02
34658;BME280;20865;43.312;27.152;2023-09-07T02:28:55;100908.22;;;26.23;41.21
34658;BME280;20865;43.312;27.152;2023-09-07T02:31:23;100910.95;;;26.23;41.26
34658;BME280;20865;43.312;27.152;2023-09-07T02:33:50;100916.34;;;26.19;41.59
34658;BME280;20865;43.312;27.152;2023-09-07T02:36:18;100917.46;;;26.17;41.79
34658;BME280;20865;43.312;27.152;2023-09-07T02:38:45;100918.21;;;26.19;41.79
34658;BME280;20865;43.312;27.152;2023-09-07T02:41:13;100922.79;;;26.18;41.85
34658;BME280;20865;43.312;27.152;2023-09-07T02:43:40;100922.94;;;26.17;41.67
34658;BME280;20865;43.312;27.152;2023-09-07T02:46:08;100917.10;;;26.16;41.41
34658;BME280;20865;43.312;27.152;2023-09-07T02:48:36;100915.60;;;26.11;41.39
34658;BME280;20865;43.312;27.152;2023-09-07T02:51:03;100912.26;;;26.08;41.53
34658;BME280;20865;43.312;27.152;2023-09-07T02:53:31;100914.52;;;26.08;41.67
34658;BME280;20865;43.312;27.152;2023-09-07T02:55:59;100911.90;;;26.07;41.63
34658;BME280;20865;43.312;27.152;2023-09-07T02:58:28;100911.39;;;26.07;41.71
34658;BME280;20865;43.312;27.152;2023-09-07T03:00:56;100916.88;;;26.07;41.74
34658;BME280;20865;43.312;27.152;2023-09-07T03:03:24;100916.51;;;26.06;41.79
34658;BME280;20865;43.312;27.152;2023-09-07T03:05:51;100913.77;;;26.06;41.61
34658;BME280;20865;43.312;27.152;2023-09-07T03:08:19;100907.69;;;26.03;41.41
34658;BME280;20865;43.312;27.152;2023-09-07T03:10:47;100915.04;;;26.02;41.26
34658;BME280;20865;43.312;27.152;2023-09-07T03:13:14;100920.63;;;26.01;41.01
34658;BME280;20865;43.312;27.152;2023-09-07T03:15:42;100918.54;;;25.99;41.07
34658;BME280;20865;43.312;27.152;2023-09-07T03:18:09;100914.69;;;25.96;41.24
34658;BME280;20865;43.312;27.152;2023-09-07T03:20:37;100915.30;;;25.94;41.36
34658;BME280;20865;43.312;27.152;2023-09-07T03:23:04;100918.69;;;25.92;41.39
34658;BME280;20865;43.312;27.152;2023-09-07T03:25:32;100924.17;;;25.92;41.23
34658;BME280;20865;43.312;27.152;2023-09-07T03:28:00;100914.59;;;25.86;41.30
34658;BME280;20865;43.312;27.152;2023-09-07T03:30:27;100920.33;;;25.83;41.35
34658;BME280;20865;43.312;27.152;2023-09-07T03:32:55;100924.43;;;25.83;41.41
34658;BME280;20865;43.312;27.152;2023-09-07T03:35:22;100915.86;;;25.82;41.44
34658;BME280;20865;43.312;27.152;2023-09-07T03:37:50;100920.58;;;25.80;41.29
34658;BME280;20865;43.312;27.152;2023-09-07T03:40:17;100918.81;;;25.79;41.18
34658;BME280;20865;43.312;27.152;2023-09-07T03:42:45;100929.16;;;25.75;41.16
34658;BME280;20865;43.312;27.152;2023-09-07T03:45:13;100931.78;;;25.77;41.15
34658;BME280;20865;43.312;27.152;2023-09-07T03:47:40;100927.28;;;25.76;41.32
34658;BME280;20865;43.312;27.152;2023-09-07T03:50:09;100929.52;;;25.76;41.17
34658;BME280;20865;43.312;27.152;2023-09-07T03:52:37;100932.14;;;25.78;40.81
34658;BME280;20865;43.312;27.152;2023-09-07T03:55:05;100937.87;;;25.75;40.57
34658;BME280;20865;43.312;27.152;2023-09-07T03:57:33;100936.50;;;25.75;40.11
34658;BME280;20865;43.312;27.152;2023-09-07T04:00:01;100935.23;;;25.73;40.39
34658;BME280;20865;43.312;27.152;2023-09-07T04:02:30;100934.02;;;25.72;40.57
34658;BME280;20865;43.312;27.152;2023-09-07T04:04:58;100937.87;;;25.69;40.68
34658;BME280;20865;43.312;27.152;2023-09-07T04:07:27;100936.50;;;25.69;40.76
34658;BME280;20865;43.312;27.152;2023-09-07T04:09:54;100938.27;;;25.70;40.86
34658;BME280;20865;43.312;27.152;2023-09-07T04:12:22;100940.86;;;25.72;40.91
34658;BME280;20865;43.312;27.152;2023-09-07T04:14:50;100953.67;;;25.71;40.93
34658;BME280;20865;43.312;27.152;2023-09-07T04:17:18;100948.92;;;25.73;40.98
34658;BME280;20865;43.312;27.152;2023-09-07T04:19:45;100946.33;;;25.77;41.01
34658;BME280;20865;43.312;27.152;2023-09-07T04:22:13;100959.03;;;25.84;40.75
34658;BME280;20865;43.312;27.152;2023-09-07T04:24:40;100945.95;;;25.87;40.74
34658;BME280;20865;43.312;27.152;2023-09-07T04:27:08;100946.92;;;25.92;40.72
34658;BME280;20865;43.312;27.152;2023-09-07T04:29:36;100952.71;;;26.04;40.67
34658;BME280;20865;43.312;27.152;2023-09-07T04:32:04;100955.30;;;26.11;40.72
34658;BME280;20865;43.312;27.152;2023-09-07T04:34:31;100953.80;;;26.19;40.83
34658;BME280;20865;43.312;27.152;2023-09-07T04:36:59;100951.52;;;26.24;40.81
34658;BME280;20865;43.312;27.152;2023-09-07T04:39:26;100955.47;;;26.31;40.73
34658;BME280;20865;43.312;27.152;2023-09-07T04:41:54;100954.80;;;26.38;40.77
34658;BME280;20865;43.312;27.152;2023-09-07T04:44:22;100952.05;;;26.44;40.68
34658;BME280;20865;43.312;27.152;2023-09-07T04:46:49;100953.79;;;26.51;40.54
34658;BME280;20865;43.312;27.152;2023-09-07T04:49:18;100958.86;;;26.55;40.70
34658;BME280;20865;43.312;27.152;2023-09-07T04:51:46;100969.41;;;26.60;39.99
34658;BME280;20865;43.312;27.152;2023-09-07T04:54:13;100962.80;;;26.63;39.98
34658;BME280;20865;43.312;27.152;2023-09-07T04:56:42;100963.83;;;26.77;40.08
34658;BME280;20865;43.312;27.152;2023-09-07T04:59:10;100963.83;;;26.77;40.08
34658;BME280;20865;43.312;27.152;2023-09-07T05:01:38;100968.27;;;26.83;40.06
34658;BME280;20865;43.312;27.152;2023-09-07T05:04:05;100977.31;;;27.26;39.68
34658;BME280;20865;43.312;27.152;2023-09-07T05:06:33;100977.31;;;27.26;39.68
34658;BME280;20865;43.312;27.152;2023-09-07T05:09:03;100972.35;;;27.50;39.36
34658;BME280;20865;43.312;27.152;2023-09-07T05:11:30;100972.35;;;27.50;39.36
34658;BME280;20865;43.312;27.152;2023-09-07T05:14:00;100968.15;;;27.62;39.34
34658;BME280;20865;43.312;27.152;2023-09-07T05:16:28;100976.72;;;27.78;39.20
34658;BME280;20865;43.312;27.152;2023-09-07T05:18:56;100971.10;;;27.89;39.16
34658;BME280;20865;43.312;27.152;2023-09-07T05:21:23;100977.07;;;28.04;39.06
34658;BME280;20865;43.312;27.152;2023-09-07T05:23:51;100974.69;;;28.15;39.04
34658;BME280;20865;43.312;27.152;2023-09-07T05:26:22;100982.56;;;28.33;38.84
34658;BME280;20865;43.312;27.152;2023-09-07T05:28:50;100984.68;;;28.55;38.61
34658;BME280;20865;43.312;27.152;2023-09-07T05:31:18;100989.78;;;28.73;38.59
34658;BME280;20865;43.312;27.152;2023-09-07T05:33:45;100984.55;;;28.89;38.59
34658;BME280;20865;43.312;27.152;2023-09-07T05:36:13;100992.50;;;29.12;37.93
34658;BME280;20865;43.312;27.152;2023-09-07T05:38:41;100989.44;;;29.29;37.80
34658;BME280;20865;43.312;27.152;2023-09-07T05:41:08;100978.19;;;29.50;37.24
34658;BME280;20865;43.312;27.152;2023-09-07T05:43:36;100983.13;;;29.70;37.16
34658;BME280;20865;43.312;27.152;2023-09-07T05:46:04;100988.56;;;29.93;36.89
34658;BME280;20865;43.312;27.152;2023-09-07T05:48:31;100991.37;;;30.15;36.02
34658;BME280;20865;43.312;27.152;2023-09-07T05:50:59;100992.64;;;30.34;35.27
34658;BME280;20865;43.312;27.152;2023-09-07T05:53:26;100988.86;;;30.57;34.36
34658;BME280;20865;43.312;27.152;2023-09-07T05:55:54;100988.66;;;30.73;34.30
34658;BME280;20865;43.312;27.152;2023-09-07T05:58:21;100986.22;;;30.92;33.31
34658;BME280;20865;43.312;27.152;2023-09-07T06:00:49;100996.57;;;30.90;32.95
34658;BME280;20865;43.312;27.152;2023-09-07T06:03:17;100998.47;;;31.19;32.60
34658;BME280;20865;43.312;27.152;2023-09-07T06:06:00;101004.92;;;31.28;32.16
34658;BME280;20865;43.312;27.152;2023-09-07T06:08:23;100999.16;;;31.47;31.87
34658;BME280;20865;43.312;27.152;2023-09-07T06:10:50;101009.42;;;31.59;31.07
34658;BME280;20865;43.312;27.152;2023-09-07T06:13:18;101002.03;;;31.76;31.35
34658;BME280;20865;43.312;27.152;2023-09-07T06:15:45;101006.80;;;31.92;30.36
34658;BME280;20865;43.312;27.152;2023-09-07T06:18:13;101002.70;;;32.24;29.29
34658;BME280;20865;43.312;27.152;2023-09-07T06:20:41;101004.28;;;32.27;29.43
34658;BME280;20865;43.312;27.152;2023-09-07T06:23:08;101006.89;;;32.33;30.42
34658;BME280;20865;43.312;27.152;2023-09-07T06:25:36;101006.05;;;32.44;30.23
34658;BME280;20865;43.312;27.152;2023-09-07T06:28:04;101004.66;;;32.57;29.56
34658;BME280;20865;43.312;27.152;2023-09-07T06:30:31;101015.23;;;32.61;28.97
34658;BME280;20865;43.312;27.152;2023-09-07T06:32:59;101004.23;;;32.15;27.94
34658;BME280;20865;43.312;27.152;2023-09-07T06:35:27;101010.91;;;32.46;29.53
34658;BME280;20865;43.312;27.152;2023-09-07T06:37:55;101009.17;;;32.62;27.99
34658;BME280;20865;43.312;27.152;2023-09-07T06:40:22;101012.10;;;32.89;28.13
34658;BME280;20865;43.312;27.152;2023-09-07T06:42:52;101017.13;;;33.06;29.02
34658;BME280;20865;43.312;27.152;2023-09-07T06:45:20;101009.64;;;33.18;29.27
34658;BME280;20865;43.312;27.152;2023-09-07T06:47:50;101013.06;;;33.33;28.45
34658;BME280;20865;43.312;27.152;2023-09-07T06:50:17;101012.01;;;33.42;27.59
34658;BME280;20865;43.312;27.152;2023-09-07T06:52:45;101008.35;;;33.54;27.54
34658;BME280;20865;43.312;27.152;2023-09-07T06:55:13;101005.38;;;33.63;27.40
34658;BME280;20865;43.312;27.152;2023-09-07T06:57:40;101005.33;;;33.72;26.56
34658;BME280;20865;43.312;27.152;2023-09-07T07:00:09;100995.02;;;33.61;27.45
34658;BME280;20865;43.312;27.152;2023-09-07T07:02:37;100994.82;;;33.63;27.72
34658;BME280;20865;43.312;27.152;2023-09-07T07:05:06;100987.19;;;33.69;27.22
34658;BME280;20865;43.312;27.152;2023-09-07T07:07:34;100990.44;;;33.77;26.48
34658;BME280;20865;43.312;27.152;2023-09-07T07:10:02;100988.27;;;33.91;26.71
34658;BME280;20865;43.312;27.152;2023-09-07T07:12:31;100988.24;;;34.03;26.05
34658;BME280;20865;43.312;27.152;2023-09-07T07:15:01;100981.25;;;34.11;25.77
34658;BME280;20865;43.312;27.152;2023-09-07T07:17:28;100982.94;;;34.17;25.48
34658;BME280;20865;43.312;27.152;2023-09-07T07:19:56;100988.20;;;34.30;25.91
34658;BME280;20865;43.312;27.152;2023-09-07T07:22:23;100984.02;;;34.34;26.12
34658;BME280;20865;43.312;27.152;2023-09-07T07:24:51;100979.07;;;34.49;26.73
34658;BME280;20865;43.312;27.152;2023-09-07T07:27:19;100988.20;;;34.57;27.56
34658;BME280;20865;43.312;27.152;2023-09-07T07:29:46;100983.95;;;34.70;26.14
34658;BME280;20865;43.312;27.152;2023-09-07T07:32:14;100982.09;;;34.81;26.94
34658;BME280;20865;43.312;27.152;2023-09-07T07:34:41;100984.12;;;34.87;26.22
34658;BME280;20865;43.312;27.152;2023-09-07T07:37:09;100984.69;;;34.97;26.10
34658;BME280;20865;43.312;27.152;2023-09-07T07:39:37;100985.19;;;35.05;26.46
34658;BME280;20865;43.312;27.152;2023-09-07T07:42:04;100982.16;;;35.11;26.18
34658;BME280;20865;43.312;27.152;2023-09-07T07:44:32;100978.40;;;35.22;26.19
34658;BME280;20865;43.312;27.152;2023-09-07T07:47:00;100968.78;;;35.29;26.32
34658;BME280;20865;43.312;27.152;2023-09-07T07:49:27;100969.09;;;35.45;26.28
34658;BME280;20865;43.312;27.152;2023-09-07T07:52:05;100964.48;;;35.67;26.12
34658;BME280;20865;43.312;27.152;2023-09-07T07:54:34;100965.52;;;35.55;25.37
34658;BME280;20865;43.312;27.152;2023-09-07T07:57:03;100966.38;;;35.55;25.32
34658;BME280;20865;43.312;27.152;2023-09-07T07:59:34;100973.78;;;35.44;24.86
34658;BME280;20865;43.312;27.152;2023-09-07T08:02:01;100962.95;;;35.53;24.56
34658;BME280;20865;43.312;27.152;2023-09-07T08:04:32;100960.67;;;35.53;25.26
34658;BME280;20865;43.312;27.152;2023-09-07T08:07:01;100964.02;;;35.63;25.90
34658;BME280;20865;43.312;27.152;2023-09-07T08:09:33;100967.23;;;35.71;25.65
34658;BME280;20865;43.312;27.152;2023-09-07T08:12:02;100962.87;;;35.83;25.10
34658;BME280;20865;43.312;27.152;2023-09-07T08:14:30;100964.55;;;35.88;24.42
34658;BME280;20865;43.312;27.152;2023-09-07T08:16:58;100963.00;;;36.11;24.76
34658;BME280;20865;43.312;27.152;2023-09-07T08:19:26;100960.69;;;36.15;24.47
34658;BME280;20865;43.312;27.152;2023-09-07T08:21:54;100958.91;;;36.18;24.29
34658;BME280;20865;43.312;27.152;2023-09-07T08:24:22;100957.52;;;36.18;23.61
34658;BME280;20865;43.312;27.152;2023-09-07T08:26:49;100947.00;;;36.24;23.65
34658;BME280;20865;43.312;27.152;2023-09-07T08:29:17;100957.19;;;36.17;23.69
34658;BME280;20865;43.312;27.152;2023-09-07T08:31:46;100950.88;;;36.30;23.84
34658;BME280;20865;43.312;27.152;2023-09-07T08:34:14;100947.45;;;36.38;24.05
34658;BME280;20865;43.312;27.152;2023-09-07T08:36:42;100950.37;;;36.41;23.31
34658;BME280;20865;43.312;27.152;2023-09-07T08:39:09;100943.20;;;36.42;23.17
34658;BME280;20865;43.312;27.152;2023-09-07T08:41:43;100939.56;;;36.42;23.43
34658;BME280;20865;43.312;27.152;2023-09-07T08:44:12;100932.16;;;36.38;23.69
34658;BME280;20865;43.312;27.152;2023-09-07T08:46:41;100942.34;;;36.63;23.61
34658;BME280;20865;43.312;27.152;2023-09-07T08:49:09;100946.89;;;36.71;23.83
34658;BME280;20865;43.312;27.152;2023-09-07T08:51:38;100937.39;;;36.87;22.89
34658;BME280;20865;43.312;27.152;2023-09-07T08:54:07;100936.69;;;36.95;23.20
34658;BME280;20865;43.312;27.152;2023-09-07T08:56:36;100931.52;;;36.92;22.91
34658;BME280;20865;43.312;27.152;2023-09-07T08:59:04;100929.35;;;36.99;22.54
34658;BME280;20865;43.312;27.152;2023-09-07T09:01:32;100926.84;;;36.93;22.72
34658;BME280;20865;43.312;27.152;2023-09-07T09:04:00;100927.33;;;36.97;23.29
34658;BME280;20865;43.312;27.152;2023-09-07T09:06:27;100929.62;;;37.04;23.27
34658;BME280;20865;43.312;27.152;2023-09-07T09:08:56;100922.34;;;37.09;22.74
34658;BME280;20865;43.312;27.152;2023-09-07T09:11:25;100921.57;;;37.22;23.45
34658;BME280;20865;43.312;27.152;2023-09-07T09:13:54;100923.77;;;37.33;22.65
34658;BME280;20865;43.312;27.152;2023-09-07T09:16:22;100909.84;;;37.33;22.39
34658;BME280;20865;43.312;27.152;2023-09-07T09:18:57;100913.20;;;37.39;22.15
34658;BME280;20865;43.312;27.152;2023-09-07T09:21:26;100908.48;;;37.40;22.11
34658;BME280;20865;43.312;27.152;2023-09-07T09:23:55;100903.95;;;37.50;21.24
34658;BME280;20865;43.312;27.152;2023-09-07T09:26:23;100902.05;;;37.57;22.27
34658;BME280;20865;43.312;27.152;2023-09-07T09:28:51;100907.41;;;37.41;21.50
34658;BME280;20865;43.312;27.152;2023-09-07T09:31:19;100897.34;;;37.40;21.86
34658;BME280;20865;43.312;27.152;2023-09-07T09:33:50;100897.87;;;37.39;21.92
34658;BME280;20865;43.312;27.152;2023-09-07T09:36:18;100885.28;;;37.26;21.73
34658;BME280;20865;43.312;27.152;2023-09-07T09:38:48;100898.09;;;37.20;22.09
34658;BME280;20865;43.312;27.152;2023-09-07T09:41:23;100888.03;;;37.19;22.11
34658;BME280;20865;43.312;27.152;2023-09-07T09:43:53;100880.44;;;37.17;22.18
34658;BME280;20865;43.312;27.152;2023-09-07T09:46:22;100886.51;;;37.10;22.44
34658;BME280;20865;43.312;27.152;2023-09-07T09:48:50;100877.71;;;37.13;21.52
34658;BME280;20865;43.312;27.152;2023-09-07T09:51:19;100876.55;;;37.36;21.51
34658;BME280;20865;43.312;27.152;2023-09-07T09:53:47;100875.67;;;37.53;21.88
34658;BME280;20865;43.312;27.152;2023-09-07T09:56:15;100878.56;;;37.49;20.68
34658;BME280;20865;43.312;27.152;2023-09-07T09:58:43;100887.81;;;37.69;21.16
34658;BME280;20865;43.312;27.152;2023-09-07T10:01:11;100886.95;;;37.69;20.79
34658;BME280;20865;43.312;27.152;2023-09-07T10:03:45;100879.17;;;37.44;21.11
34658;BME280;20865;43.312;27.152;2023-09-07T10:08:53;100878.95;;;37.22;20.86
34658;BME280;20865;43.312;27.152;2023-09-07T10:11:32;100872.27;;;37.40;21.18
34658;BME280;20865;43.312;27.152;2023-09-07T10:14:02;100875.42;;;37.06;20.91
34658;BME280;20865;43.312;27.152;2023-09-07T10:16:43;100866.53;;;37.00;21.00
34658;BME280;20865;43.312;27.152;2023-09-07T10:19:22;100868.98;;;36.88;21.01
34658;BME280;20865;43.312;27.152;2023-09-07T10:21:52;100862.97;;;36.85;21.58
34658;BME280;20865;43.312;27.152;2023-09-07T10:24:30;100856.67;;;36.87;21.80
34658;BME280;20865;43.312;27.152;2023-09-07T10:27:09;100855.25;;;36.80;21.76
34658;BME280;20865;43.312;27.152;2023-09-07T10:29:50;100850.23;;;36.97;21.98
34658;BME280;20865;43.312;27.152;2023-09-07T10:32:15;100847.63;;;37.13;21.53
34658;BME280;20865;43.312;27.152;2023-09-07T10:34:43;100844.62;;;37.08;21.55
34658;BME280;20865;43.312;27.152;2023-09-07T10:37:11;100839.67;;;37.03;21.27
34658;BME280;20865;43.312;27.152;2023-09-07T10:39:44;100845.25;;;37.03;21.37
34658;BME280;20865;43.312;27.152;2023-09-07T10:42:22;100833.87;;;36.87;21.57
34658;BME280;20865;43.312;27.152;2023-09-07T10:44:50;100844.12;;;36.80;21.46
34658;BME280;20865;43.312;27.152;2023-09-07T10:47:18;100839.67;;;36.75;21.76
34658;BME280;20865;43.312;27.152;2023-09-07T10:49:46;100830.22;;;36.98;22.76
34658;BME280;20865;43.312;27.152;2023-09-07T10:52:13;100833.22;;;37.03;22.50
34658;BME280;20865;43.312;27.152;2023-09-07T10:54:41;100830.13;;;37.02;22.57
34658;BME280;20865;43.312;27.152;2023-09-07T10:57:11;100823.86;;;36.93;22.03
34658;BME280;20865;43.312;27.152;2023-09-07T10:59:45;100823.20;;;37.08;22.23
34658;BME280;20865;43.312;27.152;2023-09-07T11:02:12;100831.99;;;37.12;21.90
34658;BME280;20865;43.312;27.152;2023-09-07T11:04:41;100822.56;;;37.13;21.26
34658;BME280;20865;43.312;27.152;2023-09-07T11:07:09;100815.51;;;37.17;21.62
34658;BME280;20865;43.312;27.152;2023-09-07T11:09:41;100827.68;;;37.33;21.76
34658;BME280;20865;43.312;27.152;2023-09-07T11:12:13;100826.53;;;37.38;21.48
34658;BME280;20865;43.312;27.152;2023-09-07T11:14:44;100832.00;;;37.42;21.59
34658;BME280;20865;43.312;27.152;2023-09-07T11:17:13;100825.63;;;37.49;21.38
34658;BME280;20865;43.312;27.152;2023-09-07T11:19:41;100816.52;;;37.51;21.12
34658;BME280;20865;43.312;27.152;2023-09-07T11:22:10;100817.34;;;37.45;20.89
34658;BME280;20865;43.312;27.152;2023-09-07T11:24:38;100822.43;;;37.28;21.15
34658;BME280;20865;43.312;27.152;2023-09-07T11:27:05;100812.41;;;37.16;21.59
34658;BME280;20865;43.312;27.152;2023-09-07T11:29:34;100803.93;;;37.07;21.42
34658;BME280;20865;43.312;27.152;2023-09-07T11:32:09;100802.77;;;36.94;21.58
34658;BME280;20865;43.312;27.152;2023-09-07T11:34:52;100805.51;;;36.88;21.52
34658;BME280;20865;43.312;27.152;2023-09-07T11:37:24;100800.77;;;36.82;22.32
34658;BME280;20865;43.312;27.152;2023-09-07T11:39:52;100795.14;;;36.92;21.37
34658;BME280;20865;43.312;27.152;2023-09-07T11:42:20;100793.55;;;37.11;21.69
34658;BME280;20865;43.312;27.152;2023-09-07T11:44:48;100793.94;;;37.02;20.82
34658;BME280;20865;43.312;27.152;2023-09-07T11:47:15;100788.69;;;37.03;20.95
34658;BME280;20865;43.312;27.152;2023-09-07T11:49:43;100798.75;;;36.97;21.11
34658;BME280;20865;43.312;27.152;2023-09-07T11:52:10;100789.34;;;36.87;21.43
34658;BME280;20865;43.312;27.152;2023-09-07T11:54:38;100780.84;;;36.78;21.40
34658;BME280;20865;43.312;27.152;2023-09-07T11:57:05;100783.93;;;36.72;21.50
34658;BME280;20865;43.312;27.152;2023-09-07T11:59:33;100784.25;;;36.73;21.70
34658;BME280;20865;43.312;27.152;2023-09-07T12:02:01;100786.94;;;36.78;22.04
34658;BME280;20865;43.312;27.152;2023-09-07T12:04:28;100780.61;;;36.73;21.78
34658;BME280;20865;43.312;27.152;2023-09-07T12:06:56;100784.30;;;36.63;21.71
34658;BME280;20865;43.312;27.152;2023-09-07T12:09:23;100784.12;;;36.71;21.78
34658;BME280;20865;43.312;27.152;2023-09-07T12:11:51;100789.13;;;36.82;21.86
34658;BME280;20865;43.312;27.152;2023-09-07T12:14:20;100777.99;;;36.82;21.93
34658;BME280;20865;43.312;27.152;2023-09-07T12:16:49;100776.19;;;36.92;21.90
34658;BME280;20865;43.312;27.152;2023-09-07T12:19:16;100769.05;;;36.93;22.08
34658;BME280;20865;43.312;27.152;2023-09-07T12:21:44;100771.98;;;37.03;21.63
34658;BME280;20865;43.312;27.152;2023-09-07T12:24:11;100779.38;;;37.06;21.61
34658;BME280;20865;43.312;27.152;2023-09-07T12:26:39;100778.68;;;37.15;21.43
34658;BME280;20865;43.312;27.152;2023-09-07T12:29:06;100778.14;;;37.15;21.49
34658;BME280;20865;43.312;27.152;2023-09-07T12:31:34;100783.58;;;37.13;21.47
34658;BME280;20865;43.312;27.152;2023-09-07T12:34:02;100777.50;;;37.20;21.61
34658;BME280;20865;43.312;27.152;2023-09-07T12:36:29;100778.04;;;37.19;21.86
34658;BME280;20865;43.312;27.152;2023-09-07T12:38:57;100776.92;;;37.31;21.85
34658;BME280;20865;43.312;27.152;2023-09-07T12:41:27;100775.06;;;37.21;21.86
34658;BME280;20865;43.312;27.152;2023-09-07T12:43:55;100786.11;;;37.25;21.66
34658;BME280;20865;43.312;27.152;2023-09-07T12:46:22;100783.22;;;37.29;21.74
34658;BME280;20865;43.312;27.152;2023-09-07T12:48:50;100776.89;;;37.25;21.56